sensor_id;sensor_type;location;lat;lon;timestamp;temperature;humidity
7028;DHT22;3555;53.248;10.336;2022-12-07T00:00:53;2.60;99.90
7028;DHT22;3555;53.248;10.336;2022-12-07T00:03:20;2.60;99.90
7028;DHT22;3555;53.248;10.336;2022-12-07T00:05:47;2.70;99.90
7028;DHT22;3555;53.248;10.336;2022-12-07T00:08:15;2.70;99.90
7028;DHT22;3555;53.248;10.336;2022-12-07T00:10:42;2.70;99.90
7028;DHT22;3555;53.248;10.336;2022-12-07T00:13:09;2.70;99.90
7028;DHT22;3555;53.248;10.336;2022-12-07T00:15:36;2.80;99.90
7028;DHT22;3555;53.248;10.336;2022-12-07T00:18:03;3.00;99.90
7028;DHT22;3555;53.248;10.336;2022-12-07T00:20:30;2.90;99.90
7028;DHT22;3555;53.248;10.336;2022-12-07T00:22:57;3.10;99.90
7028;DHT22;3555;53.248;10.336;2022-12-07T00:25:25;3.10;99.90
7028;DHT22;3555;53.248;10.336;2022-12-07T00:27:53;3.10;99.90
7028;DHT22;3555;53.248;10.336;2022-12-07T00:30:21;3.00;99.90
7028;DHT22;3555;53.248;10.336;2022-12-07T00:32:48;3.00;99.90
7028;DHT22;3555;53.248;10.336;2022-12-07T00:35:15;3.10;99.90
7028;DHT22;3555;53.248;10.336;2022-12-07T00:37:42;3.00;99.90
7028;DHT22;3555;53.248;10.336;2022-12-07T00:40:09;3.10;99.90
7028;DHT22;3555;53.248;10.336;2022-12-07T00:42:38;3.10;99.90
7028;DHT22;3555;53.248;10.336;2022-12-07T00:45:06;3.10;99.90
7028;DHT22;3555;53.248;10.336;2022-12-07T00:47:33;3.10;99.90
7028;DHT22;3555;53.248;10.336;2022-12-07T00:50:00;3.20;99.90
7028;DHT22;3555;53.248;10.336;2022-12-07T00:52:27;3.20;99.90
7028;DHT22;3555;53.248;10.336;2022-12-07T00:54:54;3.30;99.90
7028;DHT22;3555;53.248;10.336;2022-12-07T00:57:21;3.30;99.90
7028;DHT22;3555;53.248;10.336;2022-12-07T00:59:49;3.30;99.90
7028;DHT22;3555;53.248;10.336;2022-12-07T01:02:20;3.40;99.90
7028;DHT22;3555;53.248;10.336;2022-12-07T01:04:47;3.30;99.90
7028;DHT22;3555;53.248;10.336;2022-12-07T01:07:14;3.30;99.90
7028;DHT22;3555;53.248;10.336;2022-12-07T01:09:41;3.30;99.90
7028;DHT22;3555;53.248;10.336;2022-12-07T01:12:08;3.30;99.90
7028;DHT22;3555;53.248;10.336;2022-12-07T01:14:35;3.20;99.90
7028;DHT22;3555;53.248;10.336;2022-12-07T01:17:03;3.20;99.90
7028;DHT22;3555;53.248;10.336;2022-12-07T01:19:30;3.20;99.90
7028;DHT22;3555;53.248;10.336;2022-12-07T01:21:57;3.20;99.90
7028;DHT22;3555;53.248;10.336;2022-12-07T01:24:24;3.20;99.90
7028;DHT22;3555;53.248;10.336;2022-12-07T01:26:51;3.20;99.90
7028;DHT22;3555;53.248;10.336;2022-12-07T01:29:18;3.20;99.90
7028;DHT22;3555;53.248;10.336;2022-12-07T01:31:45;3.20;99.90
7028;DHT22;3555;53.248;10.336;2022-12-07T01:34:16;3.20;99.90
7028;DHT22;3555;53.248;10.336;2022-12-07T01:36:43;3.30;99.90
7028;DHT22;3555;53.248;10.336;2022-12-07T01:39:10;3.30;99.90
7028;DHT22;3555;53.248;10.336;2022-12-07T01:41:39;3.30;99.90
7028;DHT22;3555;53.248;10.336;2022-12-07T01:44:20;3.30;99.90
7028;DHT22;3555;53.248;10.336;2022-12-07T01:46:49;3.30;99.90
7028;DHT22;3555;53.248;10.336;2022-12-07T01:49:29;3.30;99.90
7028;DHT22;3555;53.248;10.336;2022-12-07T01:52:01;3.40;99.90
7028;DHT22;3555;53.248;10.336;2022-12-07T01:54:31;3.40;99.90
7028;DHT22;3555;53.248;10.336;2022-12-07T01:56:59;3.10;99.90
7028;DHT22;3555;53.248;10.336;2022-12-07T01:59:26;3.40;99.90
7028;DHT22;3555;53.248;10.336;2022-12-07T02:01:54;3.40;99.90
7028;DHT22;3555;53.248;10.336;2022-12-07T02:04:24;3.50;99.90
7028;DHT22;3555;53.248;10.336;2022-12-07T02:06:51;3.50;99.90
7028;DHT22;3555;53.248;10.336;2022-12-07T02:09:18;3.60;99.90
7028;DHT22;3555;53.248;10.336;2022-12-07T02:11:45;3.50;99.90
7028;DHT22;3555;53.248;10.336;2022-12-07T02:14:12;3.60;99.90
7028;DHT22;3555;53.248;10.336;2022-12-07T02:16:47;3.70;99.90
7028;DHT22;3555;53.248;10.336;2022-12-07T02:19:52;3.80;99.90
7028;DHT22;3555;53.248;10.336;2022-12-07T02:22:51;3.80;99.90
7028;DHT22;3555;53.248;10.336;2022-12-07T02:25:30;3.90;99.90
7028;DHT22;3555;53.248;10.336;2022-12-07T02:28:06;4.00;99.90
7028;DHT22;3555;53.248;10.336;2022-12-07T02:30:37;4.10;99.90
7028;DHT22;3555;53.248;10.336;2022-12-07T02:33:11;4.00;99.90
7028;DHT22;3555;53.248;10.336;2022-12-07T02:35:42;4.00;99.90
7028;DHT22;3555;53.248;10.336;2022-12-07T02:38:14;4.00;99.90
7028;DHT22;3555;53.248;10.336;2022-12-07T02:40:46;4.10;99.90
7028;DHT22;3555;53.248;10.336;2022-12-07T02:43:18;4.10;99.90
7028;DHT22;3555;53.248;10.336;2022-12-07T02:45:48;4.50;99.90
7028;DHT22;3555;53.248;10.336;2022-12-07T02:48:17;4.10;99.90
7028;DHT22;3555;53.248;10.336;2022-12-07T02:50:45;4.00;99.90
7028;DHT22;3555;53.248;10.336;2022-12-07T02:53:30;4.10;99.90
7028;DHT22;3555;53.248;10.336;2022-12-07T02:55:58;4.00;99.90
7028;DHT22;3555;53.248;10.336;2022-12-07T02:58:33;3.90;99.90
7028;DHT22;3555;53.248;10.336;2022-12-07T03:01:11;3.90;99.90
7028;DHT22;3555;53.248;10.336;2022-12-07T03:03:43;3.90;99.90
7028;DHT22;3555;53.248;10.336;2022-12-07T03:06:17;3.90;99.90
7028;DHT22;3555;53.248;10.336;2022-12-07T03:08:53;3.90;99.90
7028;DHT22;3555;53.248;10.336;2022-12-07T03:11:32;3.90;99.90
7028;DHT22;3555;53.248;10.336;2022-12-07T03:14:10;3.90;99.90
7028;DHT22;3555;53.248;10.336;2022-12-07T03:16:45;4.00;99.90
7028;DHT22;3555;53.248;10.336;2022-12-07T03:19:16;3.90;99.90
7028;DHT22;3555;53.248;10.336;2022-12-07T03:21:47;3.90;99.90
7028;DHT22;3555;53.248;10.336;2022-12-07T03:24:19;3.80;99.90
7028;DHT22;3555;53.248;10.336;2022-12-07T03:26:50;3.90;99.90
7028;DHT22;3555;53.248;10.336;2022-12-07T03:29:22;3.90;99.90
7028;DHT22;3555;53.248;10.336;2022-12-07T03:31:55;3.80;99.90
7028;DHT22;3555;53.248;10.336;2022-12-07T03:34:29;3.90;99.90
7028;DHT22;3555;53.248;10.336;2022-12-07T03:37:00;3.80;99.90
7028;DHT22;3555;53.248;10.336;2022-12-07T03:39:32;3.80;99.90
7028;DHT22;3555;53.248;10.336;2022-12-07T03:42:00;3.80;99.90
7028;DHT22;3555;53.248;10.336;2022-12-07T03:44:30;3.70;99.90
7028;DHT22;3555;53.248;10.336;2022-12-07T03:47:02;3.80;99.90
7028;DHT22;3555;53.248;10.336;2022-12-07T03:49:36;3.80;99.90
7028;DHT22;3555;53.248;10.336;2022-12-07T03:52:09;3.80;99.90
7028;DHT22;3555;53.248;10.336;2022-12-07T03:54:40;3.70;99.90
7028;DHT22;3555;53.248;10.336;2022-12-07T03:57:09;3.50;99.90
7028;DHT22;3555;53.248;10.336;2022-12-07T03:59:37;3.60;99.90
7028;DHT22;3555;53.248;10.336;2022-12-07T04:02:07;3.60;99.90
7028;DHT22;3555;53.248;10.336;2022-12-07T04:04:34;3.70;99.90
7028;DHT22;3555;53.248;10.336;2022-12-07T04:07:02;3.70;99.90
7028;DHT22;3555;53.248;10.336;2022-12-07T04:09:29;3.70;99.90
7028;DHT22;3555;53.248;10.336;2022-12-07T04:11:56;3.70;99.90
7028;DHT22;3555;53.248;10.336;2022-12-07T04:14:23;3.70;99.90
7028;DHT22;3555;53.248;10.336;2022-12-07T04:16:53;3.60;99.90
7028;DHT22;3555;53.248;10.336;2022-12-07T04:19:25;3.70;99.90
7028;DHT22;3555;53.248;10.336;2022-12-07T04:21:53;3.60;99.90
7028;DHT22;3555;53.248;10.336;2022-12-07T04:24:20;3.70;99.90
7028;DHT22;3555;53.248;10.336;2022-12-07T04:26:47;3.50;99.90
7028;DHT22;3555;53.248;10.336;2022-12-07T04:29:15;3.40;99.90
7028;DHT22;3555;53.248;10.336;2022-12-07T04:31:43;3.40;99.90
7028;DHT22;3555;53.248;10.336;2022-12-07T04:34:11;3.50;99.90
7028;DHT22;3555;53.248;10.336;2022-12-07T04:36:40;3.40;99.90
7028;DHT22;3555;53.248;10.336;2022-12-07T04:39:08;3.20;99.90
7028;DHT22;3555;53.248;10.336;2022-12-07T04:41:36;3.20;99.90
7028;DHT22;3555;53.248;10.336;2022-12-07T04:44:04;3.20;99.90
7028;DHT22;3555;53.248;10.336;2022-12-07T04:46:33;3.20;99.90
7028;DHT22;3555;53.248;10.336;2022-12-07T04:49:00;3.20;99.90
7028;DHT22;3555;53.248;10.336;2022-12-07T04:51:28;3.00;99.90
7028;DHT22;3555;53.248;10.336;2022-12-07T04:53:57;2.90;99.90
7028;DHT22;3555;53.248;10.336;2022-12-07T04:56:24;3.00;99.90
7028;DHT22;3555;53.248;10.336;2022-12-07T04:58:53;3.00;99.90
7028;DHT22;3555;53.248;10.336;2022-12-07T05:01:21;3.10;99.90
7028;DHT22;3555;53.248;10.336;2022-12-07T05:03:49;3.00;99.90
7028;DHT22;3555;53.248;10.336;2022-12-07T05:06:16;3.00;99.90
7028;DHT22;3555;53.248;10.336;2022-12-07T05:08:43;2.90;99.90
7028;DHT22;3555;53.248;10.336;2022-12-07T05:11:12;3.00;99.90
7028;DHT22;3555;53.248;10.336;2022-12-07T05:13:59;2.90;99.90
7028;DHT22;3555;53.248;10.336;2022-12-07T05:16:26;3.00;99.90
7028;DHT22;3555;53.248;10.336;2022-12-07T05:18:53;2.90;99.90
7028;DHT22;3555;53.248;10.336;2022-12-07T05:21:20;2.80;99.90
7028;DHT22;3555;53.248;10.336;2022-12-07T05:23:48;2.80;99.90
7028;DHT22;3555;53.248;10.336;2022-12-07T05:26:16;2.80;99.90
7028;DHT22;3555;53.248;10.336;2022-12-07T05:28:43;2.90;99.90
7028;DHT22;3555;53.248;10.336;2022-12-07T05:31:10;3.00;99.90
7028;DHT22;3555;53.248;10.336;2022-12-07T05:33:37;3.10;99.90
7028;DHT22;3555;53.248;10.336;2022-12-07T05:36:04;3.00;99.90
7028;DHT22;3555;53.248;10.336;2022-12-07T05:38:33;3.00;99.90
7028;DHT22;3555;53.248;10.336;2022-12-07T05:41:01;3.20;99.90
7028;DHT22;3555;53.248;10.336;2022-12-07T05:43:30;3.10;99.90
7028;DHT22;3555;53.248;10.336;2022-12-07T05:45:57;3.20;99.90
7028;DHT22;3555;53.248;10.336;2022-12-07T05:48:24;3.20;99.90
7028;DHT22;3555;53.248;10.336;2022-12-07T05:50:52;3.10;99.90
7028;DHT22;3555;53.248;10.336;2022-12-07T05:53:19;3.20;99.90
7028;DHT22;3555;53.248;10.336;2022-12-07T05:55:46;3.20;99.90
7028;DHT22;3555;53.248;10.336;2022-12-07T05:58:13;3.10;99.90
7028;DHT22;3555;53.248;10.336;2022-12-07T06:00:59;3.20;99.90
7028;DHT22;3555;53.248;10.336;2022-12-07T06:03:26;3.10;99.90
7028;DHT22;3555;53.248;10.336;2022-12-07T06:05:53;3.10;99.90
7028;DHT22;3555;53.248;10.336;2022-12-07T06:08:20;3.00;99.90
7028;DHT22;3555;53.248;10.336;2022-12-07T06:10:47;3.00;99.90
7028;DHT22;3555;53.248;10.336;2022-12-07T06:13:36;3.00;99.90
7028;DHT22;3555;53.248;10.336;2022-12-07T06:16:04;3.00;99.90
7028;DHT22;3555;53.248;10.336;2022-12-07T06:18:31;3.00;99.90
7028;DHT22;3555;53.248;10.336;2022-12-07T06:20:58;3.10;99.90
7028;DHT22;3555;53.248;10.336;2022-12-07T06:23:25;3.10;99.90
7028;DHT22;3555;53.248;10.336;2022-12-07T06:25:52;3.00;99.90
7028;DHT22;3555;53.248;10.336;2022-12-07T06:28:19;3.00;99.90
7028;DHT22;3555;53.248;10.336;2022-12-07T06:30:46;3.00;99.90
7028;DHT22;3555;53.248;10.336;2022-12-07T06:33:14;3.00;99.90
7028;DHT22;3555;53.248;10.336;2022-12-07T06:35:41;3.10;99.90
7028;DHT22;3555;53.248;10.336;2022-12-07T06:38:08;3.10;99.90
7028;DHT22;3555;53.248;10.336;2022-12-07T06:40:35;3.10;99.90
7028;DHT22;3555;53.248;10.336;2022-12-07T06:43:02;3.10;99.90
7028;DHT22;3555;53.248;10.336;2022-12-07T06:45:28;3.10;99.90
7028;DHT22;3555;53.248;10.336;2022-12-07T06:47:55;3.00;99.90
7028;DHT22;3555;53.248;10.336;2022-12-07T06:50:24;2.80;99.90
7028;DHT22;3555;53.248;10.336;2022-12-07T06:52:51;2.70;99.90
7028;DHT22;3555;53.248;10.336;2022-12-07T06:55:18;2.80;99.90
7028;DHT22;3555;53.248;10.336;2022-12-07T06:57:45;2.80;99.90
7028;DHT22;3555;53.248;10.336;2022-12-07T07:00:13;2.80;99.90
7028;DHT22;3555;53.248;10.336;2022-12-07T07:02:41;2.70;99.90
7028;DHT22;3555;53.248;10.336;2022-12-07T07:05:08;2.70;99.90
7028;DHT22;3555;53.248;10.336;2022-12-07T07:07:37;2.70;99.90
7028;DHT22;3555;53.248;10.336;2022-12-07T07:10:05;2.70;99.90
7028;DHT22;3555;53.248;10.336;2022-12-07T07:12:32;2.70;99.90
7028;DHT22;3555;53.248;10.336;2022-12-07T07:14:59;2.70;99.90
7028;DHT22;3555;53.248;10.336;2022-12-07T07:17:26;2.60;99.90
7028;DHT22;3555;53.248;10.336;2022-12-07T07:19:53;2.60;99.90
7028;DHT22;3555;53.248;10.336;2022-12-07T07:22:20;2.60;99.90
7028;DHT22;3555;53.248;10.336;2022-12-07T07:24:48;2.60;99.90
7028;DHT22;3555;53.248;10.336;2022-12-07T07:27:15;2.50;99.90
7028;DHT22;3555;53.248;10.336;2022-12-07T07:29:42;2.40;99.90
7028;DHT22;3555;53.248;10.336;2022-12-07T07:32:09;2.50;99.90
7028;DHT22;3555;53.248;10.336;2022-12-07T07:34:35;2.50;99.90
7028;DHT22;3555;53.248;10.336;2022-12-07T07:37:02;2.50;99.90
7028;DHT22;3555;53.248;10.336;2022-12-07T07:39:29;2.50;99.90
7028;DHT22;3555;53.248;10.336;2022-12-07T07:41:58;2.30;99.90
7028;DHT22;3555;53.248;10.336;2022-12-07T07:44:24;2.20;99.90
7028;DHT22;3555;53.248;10.336;2022-12-07T07:46:51;2.20;99.90
7028;DHT22;3555;53.248;10.336;2022-12-07T07:49:18;2.30;99.90
7028;DHT22;3555;53.248;10.336;2022-12-07T07:51:45;2.40;99.90
7028;DHT22;3555;53.248;10.336;2022-12-07T07:54:12;2.30;99.90
7028;DHT22;3555;53.248;10.336;2022-12-07T07:56:39;2.40;99.90
7028;DHT22;3555;53.248;10.336;2022-12-07T07:59:07;2.20;99.90
7028;DHT22;3555;53.248;10.336;2022-12-07T08:01:34;2.30;99.90
7028;DHT22;3555;53.248;10.336;2022-12-07T08:04:01;2.40;99.90
7028;DHT22;3555;53.248;10.336;2022-12-07T08:06:28;2.50;99.90
7028;DHT22;3555;53.248;10.336;2022-12-07T08:08:55;2.40;99.90
7028;DHT22;3555;53.248;10.336;2022-12-07T08:11:23;2.40;99.90
7028;DHT22;3555;53.248;10.336;2022-12-07T08:13:50;2.50;99.90
7028;DHT22;3555;53.248;10.336;2022-12-07T08:16:18;2.50;99.90
7028;DHT22;3555;53.248;10.336;2022-12-07T08:18:45;2.50;99.90
7028;DHT22;3555;53.248;10.336;2022-12-07T08:21:13;2.60;99.90
7028;DHT22;3555;53.248;10.336;2022-12-07T08:23:41;2.60;99.90
7028;DHT22;3555;53.248;10.336;2022-12-07T08:26:09;2.70;99.90
7028;DHT22;3555;53.248;10.336;2022-12-07T08:28:36;2.60;99.90
7028;DHT22;3555;53.248;10.336;2022-12-07T08:31:06;2.50;99.90
7028;DHT22;3555;53.248;10.336;2022-12-07T08:33:35;2.50;99.90
7028;DHT22;3555;53.248;10.336;2022-12-07T08:36:03;2.70;99.90
7028;DHT22;3555;53.248;10.336;2022-12-07T08:38:31;2.60;99.90
7028;DHT22;3555;53.248;10.336;2022-12-07T08:40:59;2.60;99.90
7028;DHT22;3555;53.248;10.336;2022-12-07T08:43:26;2.70;99.90
7028;DHT22;3555;53.248;10.336;2022-12-07T08:46:00;2.70;99.90
7028;DHT22;3555;53.248;10.336;2022-12-07T08:48:28;2.70;99.90
7028;DHT22;3555;53.248;10.336;2022-12-07T08:50:57;2.80;99.90
7028;DHT22;3555;53.248;10.336;2022-12-07T08:53:24;2.80;99.90
7028;DHT22;3555;53.248;10.336;2022-12-07T08:55:51;2.90;99.90
7028;DHT22;3555;53.248;10.336;2022-12-07T08:58:18;2.80;99.90
7028;DHT22;3555;53.248;10.336;2022-12-07T09:00:45;2.90;99.90
7028;DHT22;3555;53.248;10.336;2022-12-07T09:03:12;3.00;99.90
7028;DHT22;3555;53.248;10.336;2022-12-07T09:05:39;3.10;99.90
7028;DHT22;3555;53.248;10.336;2022-12-07T09:08:08;3.20;99.90
7028;DHT22;3555;53.248;10.336;2022-12-07T09:10:35;3.20;99.90
7028;DHT22;3555;53.248;10.336;2022-12-07T09:13:02;3.20;99.90
7028;DHT22;3555;53.248;10.336;2022-12-07T09:15:29;3.30;99.90
7028;DHT22;3555;53.248;10.336;2022-12-07T09:17:56;3.40;99.90
7028;DHT22;3555;53.248;10.336;2022-12-07T09:20:23;3.30;99.90
7028;DHT22;3555;53.248;10.336;2022-12-07T09:22:50;3.50;99.90
7028;DHT22;3555;53.248;10.336;2022-12-07T09:25:18;3.50;99.90
7028;DHT22;3555;53.248;10.336;2022-12-07T09:27:45;3.60;99.90
7028;DHT22;3555;53.248;10.336;2022-12-07T09:30:12;3.40;99.90
7028;DHT22;3555;53.248;10.336;2022-12-07T09:32:39;3.50;99.90
7028;DHT22;3555;53.248;10.336;2022-12-07T09:35:07;3.80;99.90
7028;DHT22;3555;53.248;10.336;2022-12-07T09:37:34;3.60;99.90
7028;DHT22;3555;53.248;10.336;2022-12-07T09:40:02;3.60;99.90
7028;DHT22;3555;53.248;10.336;2022-12-07T09:42:34;3.80;99.90
7028;DHT22;3555;53.248;10.336;2022-12-07T09:45:01;3.80;99.90
7028;DHT22;3555;53.248;10.336;2022-12-07T09:47:29;3.80;99.90
7028;DHT22;3555;53.248;10.336;2022-12-07T09:50:03;3.70;99.90
7028;DHT22;3555;53.248;10.336;2022-12-07T09:52:31;3.80;99.90
7028;DHT22;3555;53.248;10.336;2022-12-07T09:54:58;3.90;99.90
7028;DHT22;3555;53.248;10.336;2022-12-07T09:57:30;4.00;99.90
7028;DHT22;3555;53.248;10.336;2022-12-07T10:00:03;4.10;99.90
7028;DHT22;3555;53.248;10.336;2022-12-07T10:02:35;4.00;99.90
7028;DHT22;3555;53.248;10.336;2022-12-07T10:05:05;4.00;99.90
7028;DHT22;3555;53.248;10.336;2022-12-07T10:07:32;3.80;99.90
7028;DHT22;3555;53.248;10.336;2022-12-07T10:10:01;3.90;99.90
7028;DHT22;3555;53.248;10.336;2022-12-07T10:12:29;3.70;99.90
7028;DHT22;3555;53.248;10.336;2022-12-07T10:15:00;3.80;99.90
7028;DHT22;3555;53.248;10.336;2022-12-07T10:17:36;3.90;99.90
7028;DHT22;3555;53.248;10.336;2022-12-07T10:20:28;3.90;99.90
7028;DHT22;3555;53.248;10.336;2022-12-07T10:23:02;3.90;99.90
7028;DHT22;3555;53.248;10.336;2022-12-07T10:25:32;4.10;99.90
7028;DHT22;3555;53.248;10.336;2022-12-07T10:28:12;4.20;99.90
7028;DHT22;3555;53.248;10.336;2022-12-07T10:30:48;4.10;99.90
7028;DHT22;3555;53.248;10.336;2022-12-07T10:33:31;4.10;99.90
7028;DHT22;3555;53.248;10.336;2022-12-07T10:36:00;4.10;99.90
7028;DHT22;3555;53.248;10.336;2022-12-07T10:38:27;4.20;99.90
7028;DHT22;3555;53.248;10.336;2022-12-07T10:41:06;4.30;99.90
7028;DHT22;3555;53.248;10.336;2022-12-07T10:43:36;4.50;99.90
7028;DHT22;3555;53.248;10.336;2022-12-07T10:49:56;4.50;99.90
7028;DHT22;3555;53.248;10.336;2022-12-07T10:52:44;4.50;99.90
7028;DHT22;3555;53.248;10.336;2022-12-07T10:55:20;4.50;99.90
7028;DHT22;3555;53.248;10.336;2022-12-07T10:57:56;4.60;99.90
7028;DHT22;3555;53.248;10.336;2022-12-07T11:00:30;4.70;99.90
7028;DHT22;3555;53.248;10.336;2022-12-07T11:03:15;4.70;99.90
7028;DHT22;3555;53.248;10.336;2022-12-07T11:05:53;4.60;99.90
7028;DHT22;3555;53.248;10.336;2022-12-07T11:08:35;4.60;99.90
7028;DHT22;3555;53.248;10.336;2022-12-07T11:11:08;4.50;99.90
7028;DHT22;3555;53.248;10.336;2022-12-07T11:13:42;4.60;99.90
7028;DHT22;3555;53.248;10.336;2022-12-07T11:16:21;4.60;99.90
7028;DHT22;3555;53.248;10.336;2022-12-07T11:21:57;3.90;99.90
7028;DHT22;3555;53.248;10.336;2022-12-07T11:24:30;4.30;99.90
7028;DHT22;3555;53.248;10.336;2022-12-07T11:27:12;4.20;99.90
7028;DHT22;3555;53.248;10.336;2022-12-07T11:29:52;4.60;99.90
7028;DHT22;3555;53.248;10.336;2022-12-07T11:32:36;4.20;99.90
7028;DHT22;3555;53.248;10.336;2022-12-07T11:35:13;4.30;99.90
7028;DHT22;3555;53.248;10.336;2022-12-07T11:37:43;4.30;99.90
7028;DHT22;3555;53.248;10.336;2022-12-07T11:40:17;4.20;99.90
7028;DHT22;3555;53.248;10.336;2022-12-07T11:42:51;4.30;99.90
7028;DHT22;3555;53.248;10.336;2022-12-07T11:45:21;4.30;99.90
7028;DHT22;3555;53.248;10.336;2022-12-07T11:47:55;4.40;99.90
7028;DHT22;3555;53.248;10.336;2022-12-07T11:50:30;4.40;99.90
7028;DHT22;3555;53.248;10.336;2022-12-07T11:53:01;4.30;99.90
7028;DHT22;3555;53.248;10.336;2022-12-07T11:55:37;4.40;99.90
7028;DHT22;3555;53.248;10.336;2022-12-07T11:58:20;4.50;99.90
7028;DHT22;3555;53.248;10.336;2022-12-07T12:00:50;4.50;99.90
7028;DHT22;3555;53.248;10.336;2022-12-07T12:03:25;4.40;99.90
7028;DHT22;3555;53.248;10.336;2022-12-07T12:05:55;4.60;99.90
7028;DHT22;3555;53.248;10.336;2022-12-07T12:08:27;4.60;99.90
7028;DHT22;3555;53.248;10.336;2022-12-07T12:11:00;4.60;99.90
7028;DHT22;3555;53.248;10.336;2022-12-07T12:13:57;4.70;99.90
7028;DHT22;3555;53.248;10.336;2022-12-07T12:19:30;4.70;99.90
7028;DHT22;3555;53.248;10.336;2022-12-07T12:22:07;4.60;99.90
7028;DHT22;3555;53.248;10.336;2022-12-07T12:24:37;4.60;99.90
7028;DHT22;3555;53.248;10.336;2022-12-07T12:27:08;4.60;99.90
7028;DHT22;3555;53.248;10.336;2022-12-07T12:29:39;4.60;99.90
7028;DHT22;3555;53.248;10.336;2022-12-07T12:32:18;4.50;99.90
7028;DHT22;3555;53.248;10.336;2022-12-07T12:37:46;4.90;99.90
7028;DHT22;3555;53.248;10.336;2022-12-07T12:40:42;4.60;99.90
7028;DHT22;3555;53.248;10.336;2022-12-07T12:43:39;4.60;99.90
7028;DHT22;3555;53.248;10.336;2022-12-07T12:49:43;4.70;99.90
7028;DHT22;3555;53.248;10.336;2022-12-07T12:55:22;4.80;99.90
7028;DHT22;3555;53.248;10.336;2022-12-07T13:04:23;4.80;99.90
7028;DHT22;3555;53.248;10.336;2022-12-07T13:06:50;4.90;99.90
7028;DHT22;3555;53.248;10.336;2022-12-07T13:09:21;5.00;99.90
7028;DHT22;3555;53.248;10.336;2022-12-07T13:11:57;5.00;99.90
7028;DHT22;3555;53.248;10.336;2022-12-07T13:14:52;4.90;99.90
7028;DHT22;3555;53.248;10.336;2022-12-07T13:23:23;4.60;99.90
7028;DHT22;3555;53.248;10.336;2022-12-07T13:25:56;4.70;99.90
7028;DHT22;3555;53.248;10.336;2022-12-07T13:28:33;4.80;99.90
7028;DHT22;3555;53.248;10.336;2022-12-07T13:31:14;4.80;99.90
7028;DHT22;3555;53.248;10.336;2022-12-07T13:33:44;4.70;99.90
7028;DHT22;3555;53.248;10.336;2022-12-07T13:36:20;4.80;99.90
7028;DHT22;3555;53.248;10.336;2022-12-07T13:38:50;4.70;99.90
7028;DHT22;3555;53.248;10.336;2022-12-07T13:41:19;4.80;99.90
7028;DHT22;3555;53.248;10.336;2022-12-07T13:46:18;4.80;99.90
7028;DHT22;3555;53.248;10.336;2022-12-07T13:48:47;4.90;99.90
7028;DHT22;3555;53.248;10.336;2022-12-07T13:51:19;4.80;99.90
7028;DHT22;3555;53.248;10.336;2022-12-07T13:53:47;4.70;99.90
7028;DHT22;3555;53.248;10.336;2022-12-07T13:56:15;4.70;99.90
7028;DHT22;3555;53.248;10.336;2022-12-07T13:58:42;4.70;99.90
7028;DHT22;3555;53.248;10.336;2022-12-07T14:01:11;4.70;99.90
7028;DHT22;3555;53.248;10.336;2022-12-07T14:03:39;4.60;99.90
7028;DHT22;3555;53.248;10.336;2022-12-07T14:06:14;4.60;99.90
7028;DHT22;3555;53.248;10.336;2022-12-07T14:08:42;4.60;99.90
7028;DHT22;3555;53.248;10.336;2022-12-07T14:11:14;4.60;99.90
7028;DHT22;3555;53.248;10.336;2022-12-07T14:13:50;4.60;99.90
7028;DHT22;3555;53.248;10.336;2022-12-07T14:16:25;4.70;99.90
7028;DHT22;3555;53.248;10.336;2022-12-07T14:18:53;4.80;99.90
7028;DHT22;3555;53.248;10.336;2022-12-07T14:21:22;4.70;99.90
7028;DHT22;3555;53.248;10.336;2022-12-07T14:24:11;4.70;99.90
7028;DHT22;3555;53.248;10.336;2022-12-07T14:26:39;4.80;99.90
7028;DHT22;3555;53.248;10.336;2022-12-07T14:29:20;4.80;99.90
7028;DHT22;3555;53.248;10.336;2022-12-07T14:31:50;4.90;99.90
7028;DHT22;3555;53.248;10.336;2022-12-07T14:34:19;5.00;99.90
7028;DHT22;3555;53.248;10.336;2022-12-07T14:36:46;4.90;99.90
7028;DHT22;3555;53.248;10.336;2022-12-07T14:39:13;4.80;99.90
7028;DHT22;3555;53.248;10.336;2022-12-07T14:41:40;4.80;99.90
7028;DHT22;3555;53.248;10.336;2022-12-07T14:44:20;4.80;99.90
7028;DHT22;3555;53.248;10.336;2022-12-07T14:46:50;4.70;99.90
7028;DHT22;3555;53.248;10.336;2022-12-07T14:49:17;4.70;99.90
7028;DHT22;3555;53.248;10.336;2022-12-07T14:51:46;4.70;99.90
7028;DHT22;3555;53.248;10.336;2022-12-07T14:54:16;4.70;99.90
7028;DHT22;3555;53.248;10.336;2022-12-07T14:56:45;4.70;99.90
7028;DHT22;3555;53.248;10.336;2022-12-07T14:59:15;4.70;99.90
7028;DHT22;3555;53.248;10.336;2022-12-07T15:01:42;4.70;99.90
7028;DHT22;3555;53.248;10.336;2022-12-07T15:04:10;4.50;99.90
7028;DHT22;3555;53.248;10.336;2022-12-07T15:06:37;4.50;99.90
7028;DHT22;3555;53.248;10.336;2022-12-07T15:09:04;4.60;99.90
7028;DHT22;3555;53.248;10.336;2022-12-07T15:11:31;4.60;99.90
7028;DHT22;3555;53.248;10.336;2022-12-07T15:13:58;4.60;99.90
7028;DHT22;3555;53.248;10.336;2022-12-07T15:16:34;4.60;99.90
7028;DHT22;3555;53.248;10.336;2022-12-07T15:19:02;4.60;99.90
7028;DHT22;3555;53.248;10.336;2022-12-07T15:21:30;4.70;99.90
7028;DHT22;3555;53.248;10.336;2022-12-07T15:23:57;4.70;99.90
7028;DHT22;3555;53.248;10.336;2022-12-07T15:26:24;4.70;99.90
7028;DHT22;3555;53.248;10.336;2022-12-07T15:28:52;4.70;99.90
7028;DHT22;3555;53.248;10.336;2022-12-07T15:31:19;4.70;99.90
7028;DHT22;3555;53.248;10.336;2022-12-07T15:33:46;4.70;99.90
7028;DHT22;3555;53.248;10.336;2022-12-07T15:36:19;4.70;99.90
7028;DHT22;3555;53.248;10.336;2022-12-07T15:38:48;4.70;99.90
7028;DHT22;3555;53.248;10.336;2022-12-07T15:41:15;4.70;99.90
7028;DHT22;3555;53.248;10.336;2022-12-07T15:43:42;4.70;99.90
7028;DHT22;3555;53.248;10.336;2022-12-07T15:46:29;4.60;99.90
7028;DHT22;3555;53.248;10.336;2022-12-07T15:48:57;4.60;99.90
7028;DHT22;3555;53.248;10.336;2022-12-07T15:51:24;4.60;99.90
7028;DHT22;3555;53.248;10.336;2022-12-07T15:53:52;4.50;99.90
7028;DHT22;3555;53.248;10.336;2022-12-07T15:56:19;4.50;99.90
7028;DHT22;3555;53.248;10.336;2022-12-07T15:58:46;4.50;99.90
7028;DHT22;3555;53.248;10.336;2022-12-07T16:01:14;4.50;99.90
7028;DHT22;3555;53.248;10.336;2022-12-07T16:03:42;4.50;99.90
7028;DHT22;3555;53.248;10.336;2022-12-07T16:06:09;4.50;99.90
7028;DHT22;3555;53.248;10.336;2022-12-07T16:08:36;4.40;99.90
7028;DHT22;3555;53.248;10.336;2022-12-07T16:11:06;4.40;99.90
7028;DHT22;3555;53.248;10.336;2022-12-07T16:13:34;4.30;99.90
7028;DHT22;3555;53.248;10.336;2022-12-07T16:16:03;4.20;99.90
7028;DHT22;3555;53.248;10.336;2022-12-07T16:18:30;4.20;99.90
7028;DHT22;3555;53.248;10.336;2022-12-07T16:20:57;4.10;99.90
7028;DHT22;3555;53.248;10.336;2022-12-07T16:23:24;4.00;99.90
7028;DHT22;3555;53.248;10.336;2022-12-07T16:25:51;3.90;99.90
7028;DHT22;3555;53.248;10.336;2022-12-07T16:28:19;3.70;99.90
7028;DHT22;3555;53.248;10.336;2022-12-07T16:30:46;3.80;99.90
7028;DHT22;3555;53.248;10.336;2022-12-07T16:33:13;3.80;99.90
7028;DHT22;3555;53.248;10.336;2022-12-07T16:35:40;3.80;99.90
7028;DHT22;3555;53.248;10.336;2022-12-07T16:38:07;3.80;99.90
7028;DHT22;3555;53.248;10.336;2022-12-07T16:40:34;3.90;99.90
7028;DHT22;3555;53.248;10.336;2022-12-07T16:43:01;3.90;99.90
7028;DHT22;3555;53.248;10.336;2022-12-07T16:45:29;3.90;99.90
7028;DHT22;3555;53.248;10.336;2022-12-07T16:47:56;3.90;99.90
7028;DHT22;3555;53.248;10.336;2022-12-07T16:50:23;3.90;99.90
7028;DHT22;3555;53.248;10.336;2022-12-07T16:52:50;3.90;99.90
7028;DHT22;3555;53.248;10.336;2022-12-07T16:55:17;3.80;99.90